Flight Track Log - Related Links

Times and Time Zones

All times are in EST time to prevent confusion due to time zone crossing. See the N1944E flight status page for this flight to view local times or setup timezone preferences in your user account.

Time Position Orientation Groundspeed Altitude Reporting Facility
EST Latitude Longitude Course Direction KTS MPH feet Rate Location/Type
Fri 08:16:26 AM 46.1042 -107.9031 57° Northeast 183 211 13,000  Level Salt Lake Center
Fri 08:28:30 AM 46.4369 -107.1658 57° Northeast 186 214 13,000 -8 Level Salt Lake Center
Fri 08:29:00 AM 46.3917 -107.2633 56° Northeast  Level FlightAware Approximate
Fri 08:29:31 AM 46.4644 -107.1042 57° Northeast 185 213 12,900  Level Salt Lake Center
Fri 08:30:00 AM 46.4153 -107.2128 56° Northeast  Level FlightAware Approximate
Fri 08:30:31 AM 46.4914 -107.0436 57° Northeast 182 209 12,900  Level Salt Lake Center
Fri 08:31:00 AM 46.4388 -107.1623 56° Northeast  Level FlightAware Approximate
Fri 08:31:31 AM 46.5189 -106.9878 54° Northeast 177 204 12,900  Level Salt Lake Center
Fri 08:32:00 AM 46.4624 -107.1117 56° Northeast  Level FlightAware Approximate
Fri 08:32:32 AM 46.5456 -106.9267 58° Northeast 179 206 12,900  Level Salt Lake Center
Fri 08:33:00 AM 46.4858 -107.0611 57° Northeast  Level FlightAware Approximate
Fri 08:33:32 AM 46.5731 -106.8664 56° Northeast 179 206 12,900  Level Salt Lake Center
Fri 08:34:32 AM 46.5983 -106.8069 58° Northeast 176 203 12,900  Level Salt Lake Center
Fri 08:35:33 AM 46.6256 -106.7467 57° Northeast 177 204 12,900  Level Salt Lake Center
Fri 08:36:33 AM 46.6531 -106.6869 56° Northeast 176 203 12,900  Level Salt Lake Center
Fri 08:37:34 AM 46.6789 -106.6258 58° Northeast 176 203 12,900  Level Salt Lake Center
Fri 08:38:34 AM 46.7031 -106.5647 60° Northeast 176 203 12,900  Level Salt Lake Center
Fri 08:39:34 AM 46.7289 -106.5033 58° Northeast 177 204 12,900  Level Salt Lake Center
Fri 08:40:35 AM 46.7553 -106.4428 58° Northeast 177 204 12,900  Level Salt Lake Center
Fri 08:41:35 AM 46.7822 -106.3833 56° Northeast 176 203 12,900  Level Salt Lake Center
Fri 08:42:36 AM 46.8086 -106.3228 57° Northeast 177 204 12,900  Level Salt Lake Center
Fri 08:43:36 AM 46.8350 -106.2628 57° Northeast 176 203 12,900  Level Salt Lake Center
Fri 08:44:36 AM 46.8608 -106.2028 58° Northeast 176 203 12,900  Level Salt Lake Center
Fri 08:45:37 AM 46.8858 -106.1419 59° Northeast 175 201 12,900  Level Salt Lake Center
Fri 08:46:37 AM 46.9117 -106.0811 58° Northeast 176 203 12,900  Level Salt Lake Center
Fri 08:47:38 AM 46.9392 -106.0225 55° Northeast 176 203 12,900  Level Salt Lake Center
Fri 08:48:38 AM 46.9711 -105.9506 57° Northeast 176 203 12,900  Level Salt Lake Center
Fri 08:49:39 AM 46.9961 -105.8903 59° Northeast 175 201 12,900  Level Salt Lake Center
Fri 08:50:39 AM 47.0206 -105.8292 60° Northeast 174 200 12,900  Level Salt Lake Center
Fri 08:51:40 AM 47.0456 -105.7675 59° Northeast 175 201 12,900  Level Salt Lake Center
Fri 08:52:40 AM 47.0728 -105.7086 56° Northeast 175 201 12,900  Level Salt Lake Center
Fri 08:53:41 AM 47.0986 -105.6492 57° Northeast 174 200 12,900  Level Salt Lake Center
Fri 08:54:41 AM 47.1250 -105.5892 57° Northeast 175 201 12,900  Level Salt Lake Center
Fri 08:55:42 AM 47.1508 -105.5264 59° Northeast 177 204 12,900  Level Salt Lake Center
Fri 08:56:42 AM 47.1764 -105.4647 59° Northeast 178 205 12,900  Level Salt Lake Center
Fri 08:57:43 AM 47.2028 -105.4050 57° Northeast 177 204 12,900  Level Salt Lake Center
Fri 08:58:43 AM 47.2283 -105.3450 58° Northeast 175 201 12,900  Level Salt Lake Center
Fri 08:59:44 AM 47.2544 -105.2850 57° Northeast 174 200 12,900  Level Salt Lake Center
Fri 09:00:44 AM 47.2808 -105.2233 58° Northeast 176 203 12,900  Level Salt Lake Center
Fri 09:01:45 AM 47.3067 -105.1619 58° Northeast 177 204 12,900 -298 Level Salt Lake Center
Fri 09:02:45 AM 47.3331 -105.0961 59° Northeast 181 208 12,300 -645 Descending Salt Lake Center
Fri 09:03:46 AM 47.3622 -105.0242 59° Northeast 191 220 11,600 -738 Descending Salt Lake Center
Fri 09:04:47 AM 47.3922 -104.9528 58° Northeast 199 229 10,800 -793 Descending Salt Lake Center
Fri 09:05:47 AM 47.4225 -104.8794 59° Northeast 205 236 10,000 -793 Descending Salt Lake Center
Fri 09:06:48 AM 47.4525 -104.8058 59° Northeast 208 239 9,200 -793 Descending Salt Lake Center
Fri 09:07:48 AM 47.4836 -104.7358 57° Northeast 207 238 8,400 -744 Descending Salt Lake Center
Fri 09:08:49 AM 47.5136 -104.6628 59° Northeast 207 238 7,700 -689 Descending Salt Lake Center
Fri 09:09:50 AM 47.5436 -104.5928 58° Northeast 205 236 7,000 -689 Descending Salt Lake Center

Login

Don't have an account? Register now (free) for customized features, flight alerts, and more!